Terminal Aerodrome Forecast
Issued by NWS Des Moines, IA

Home | Current Version | Previous Version | Text Only | Print | Product List | Glossary On
Versions: 1 2 3 4 5 6 7 8 9 10 11 12 13 14 15 16 17 18 19 20 21 22 23 24 25 26 27 28
000
FTUS43 KDMX 181137
TAFDSM
TAF
KDSM 181137Z 1812/1912 15005KT 1/4SM FZFG OVC003
     FM181330 22010KT 3SM BR OVC007
     FM181530 20011KT P6SM FEW030
     FM190900 17007KT P6SM BKN025=

USA.gov is the U.S. government's official web portal to all federal, state and local government web resources and services.